Time;durP1;ratioP1;P1;durP2;ratioP2;P2;SDS_P1;SDS_P2;PMS_P1;PMS_P2;Temp;Humidity;BMP_temperature;BMP_pressure;BME280_temperature;BME280_humidity;BME280_pressure;Samples;Min_cycle;Max_cycle;Signal;HPM_P1;HPM_P2
2022/08/06 00:01:33;;;;;;;4.78;1.98;;;14.90;91.30;;;;;;5108670;28;20039;-67
2022/08/06 00:03:58;;;;;;;4.75;1.67;;;14.80;91.30;;;;;;5099353;28;20031;-67
2022/08/06 00:06:24;;;;;;;4.97;1.60;;;14.70;91.70;;;;;;5088314;28;20032;-67
2022/08/06 00:08:50;;;;;;;4.72;1.60;;;14.60;91.90;;;;;;5088258;28;20331;-67
2022/08/06 00:11:15;;;;;;;2.80;1.27;;;14.50;92.00;;;;;;5086772;28;20462;-67
2022/08/06 00:13:41;;;;;;;2.85;1.30;;;14.40;92.40;;;;;;5088024;28;20067;-66
2022/08/06 00:16:07;;;;;;;4.15;1.60;;;14.50;92.80;;;;;;5086586;28;20036;-67
2022/08/06 00:18:33;;;;;;;4.72;1.50;;;14.50;92.20;;;;;;5103397;28;20063;-68
2022/08/06 00:20:58;;;;;;;5.00;1.33;;;14.60;92.60;;;;;;5087966;28;20035;-67
2022/08/06 00:23:24;;;;;;;4.10;1.30;;;14.70;91.60;;;;;;5088059;28;20028;-68
2022/08/06 00:25:50;;;;;;;4.43;1.33;;;14.70;91.50;;;;;;5091741;28;20074;-68
2022/08/06 00:28:15;;;;;;;5.07;1.58;;;14.80;90.90;;;;;;5091565;28;20039;-68
2022/08/06 00:30:41;;;;;;;5.90;1.30;;;14.80;91.30;;;;;;5090184;28;20032;-68
2022/08/06 00:33:07;;;;;;;3.75;1.30;;;14.80;91.10;;;;;;5091876;28;20039;-67
2022/08/06 00:35:33;;;;;;;3.53;1.02;;;14.70;91.40;;;;;;5091444;28;20110;-67
2022/08/06 00:37:58;;;;;;;7.30;1.40;;;14.70;91.90;;;;;;5091221;28;20401;-67
2022/08/06 00:40:29;;;;;;;4.85;1.50;;;14.60;91.70;;;;;;5091361;28;20575;-67
2022/08/06 00:42:59;;;;;;;3.20;1.23;;;14.50;92.30;;;;;;5091186;28;20032;-67
2022/08/06 00:45:25;;;;;;;3.80;1.40;;;14.50;92.90;;;;;;5091310;28;20020;-67
2022/08/06 00:47:51;;;;;;;3.50;1.38;;;14.50;92.80;;;;;;5091125;28;20035;-67
2022/08/06 00:50:17;;;;;;;5.47;1.20;;;14.50;93.00;;;;;;5091227;28;20065;-67
2022/08/06 00:52:44;;;;;;;3.00;1.00;;;14.50;93.30;;;;;;5091188;28;20139;-68
2022/08/06 00:55:09;;;;;;;7.25;1.48;;;14.40;93.60;;;;;;5089843;28;20048;-67
2022/08/06 00:57:35;;;;;;;2.60;1.10;;;14.40;93.70;;;;;;5090918;28;20465;-67
2022/08/06 01:00:00;;;;;;;4.15;1.50;;;14.40;93.70;;;;;;5091076;28;20078;-68
2022/08/06 01:02:26;;;;;;;5.38;1.20;;;14.40;93.90;;;;;;5104790;28;20028;-69
2022/08/06 01:04:52;;;;;;;4.50;1.20;;;14.30;94.00;;;;;;5110552;28;20028;-68
2022/08/06 01:07:18;;;;;;;3.72;1.30;;;14.30;94.80;;;;;;5110985;28;20035;-68
2022/08/06 01:09:43;;;;;;;2.83;1.10;;;14.40;94.40;;;;;;5108193;28;20027;-68
2022/08/06 01:12:09;;;;;;;5.50;1.30;;;14.40;94.40;;;;;;5110463;28;20040;-68
2022/08/06 01:14:34;;;;;;;3.50;1.38;;;14.50;94.30;;;;;;5111353;28;20063;-66
2022/08/06 01:17:05;;;;;;;4.03;1.48;;;14.40;94.00;;;;;;5095684;28;20032;-67
2022/08/06 01:19:46;;;;;;;4.32;1.30;;;14.50;93.80;;;;;;5090008;28;20077;-67
2022/08/06 01:22:36;;;;;;;2.78;1.20;;;14.40;93.70;;;;;;5089226;28;20032;-66
2022/08/06 01:25:21;;;;;;;5.68;1.40;;;14.40;94.10;;;;;;5090849;28;20028;-66
2022/08/06 01:28:01;;;;;;;3.95;1.33;;;14.40;94.10;;;;;;5105724;28;20118;-66
2022/08/06 01:30:33;;;;;;;3.95;1.52;;;14.30;94.30;;;;;;5090579;28;20387;-66
2022/08/06 01:33:05;;;;;;;4.53;1.40;;;14.30;94.80;;;;;;5088995;28;20030;-66
2022/08/06 01:35:37;;;;;;;3.92;1.42;;;14.20;94.60;;;;;;5090474;28;20036;-66
2022/08/06 01:38:22;;;;;;;2.80;1.35;;;14.20;95.00;;;;;;5090240;28;20097;-66
2022/08/06 01:40:50;;;;;;;4.53;1.35;;;14.20;95.10;;;;;;5090286;28;20032;-66
2022/08/06 01:43:19;;;;;;;5.20;1.38;;;14.20;95.40;;;;;;5090713;28;20032;-66
2022/08/06 01:45:46;;;;;;;4.68;1.50;;;14.10;95.70;;;;;;5090257;28;20107;-66
2022/08/06 01:48:22;;;;;;;4.65;1.55;;;14.10;95.80;;;;;;5090178;28;20046;-66
2022/08/06 01:50:52;;;;;;;3.85;1.50;;;14.10;96.00;;;;;;5090010;28;20119;-66
2022/08/06 01:53:25;;;;;;;3.95;1.50;;;14.00;96.20;;;;;;5090013;28;20123;-67
2022/08/06 01:55:56;;;;;;;3.50;1.17;;;14.00;96.60;;;;;;5089832;28;20127;-67
2022/08/06 01:58:27;;;;;;;3.50;1.40;;;14.00;96.50;;;;;;5089820;28;20759;-66
2022/08/06 02:00:54;;;;;;;4.78;1.48;;;13.90;96.80;;;;;;5092301;28;20517;-66
2022/08/06 02:03:33;;;;;;;4.25;1.50;;;13.90;96.90;;;;;;5089666;28;20071;-66
2022/08/06 02:06:01;;;;;;;3.90;1.38;;;13.90;97.10;;;;;;5088232;28;20028;-66
2022/08/06 02:08:32;;;;;;;3.65;1.20;;;13.90;97.10;;;;;;5088203;28;20043;-69
2022/08/06 02:11:00;;;;;;;4.97;1.70;;;13.90;97.20;;;;;;5089770;28;20166;-66
2022/08/06 02:13:30;;;;;;;6.18;1.50;;;13.90;97.10;;;;;;5089553;28;20055;-69
2022/08/06 02:15:56;;;;;;;2.85;1.35;;;13.80;97.50;;;;;;5089397;28;20028;-66
2022/08/06 02:18:23;;;;;;;5.00;1.50;;;13.80;97.60;;;;;;5089115;28;20517;-68
2022/08/06 02:20:52;;;;;;;4.72;1.50;;;13.70;97.70;;;;;;5089641;28;20035;-67
2022/08/06 02:23:21;;;;;;;3.58;1.33;;;13.70;98.00;;;;;;5089542;28;20031;-67
2022/08/06 02:25:51;;;;;;;6.43;1.50;;;13.60;98.30;;;;;;5089410;28;20043;-67
2022/08/06 02:28:19;;;;;;;4.25;1.42;;;13.60;98.70;;;;;;5089386;28;20068;-67
2022/08/06 02:30:48;;;;;;;4.40;1.45;;;13.60;98.90;;;;;;5089337;28;20043;-68
2022/08/06 02:33:16;;;;;;;4.30;1.40;;;13.60;98.90;;;;;;5089488;28;20107;-66
2022/08/06 02:35:51;;;;;;;2.65;1.20;;;13.60;98.60;;;;;;5089081;28;20036;-67
2022/08/06 02:38:29;;;;;;;4.75;1.45;;;13.70;98.70;;;;;;5088800;28;20419;-67
2022/08/06 02:41:04;;;;;;;4.72;1.20;;;13.70;98.60;;;;;;5089177;28;20054;-66
2022/08/06 02:43:39;;;;;;;3.70;1.10;;;13.70;98.60;;;;;;5089330;28;20032;-66
2022/08/06 02:46:14;;;;;;;2.78;1.02;;;13.70;98.50;;;;;;5087513;28;20028;-66
2022/08/06 02:48:49;;;;;;;4.30;1.33;;;13.70;98.50;;;;;;5089043;28;20031;-66
2022/08/06 02:51:21;;;;;;;5.60;1.30;;;13.70;98.50;;;;;;5088998;28;20016;-68
2022/08/06 02:53:59;;;;;;;2.60;1.10;;;13.70;98.60;;;;;;5088727;28;20039;-66
2022/08/06 02:56:26;;;;;;;4.40;1.23;;;13.70;98.60;;;;;;5088987;28;20111;-67
2022/08/06 02:58:55;;;;;;;2.97;1.10;;;13.80;98.50;;;;;;5087306;28;20032;-66
2022/08/06 03:01:29;;;;;;;3.25;1.30;;;13.70;98.60;;;;;;5089842;28;20124;-66
2022/08/06 03:03:58;;;;;;;4.47;1.50;;;13.80;98.80;;;;;;5088638;28;20063;-66
2022/08/06 03:06:33;;;;;;;3.60;1.23;;;13.70;98.80;;;;;;5088810;28;20028;-68
2022/08/06 03:09:02;;;;;;;4.45;1.50;;;13.70;98.80;;;;;;5104401;28;20032;-68
2022/08/06 03:11:32;;;;;;;4.82;1.42;;;13.70;99.00;;;;;;5088609;28;20036;-68
2022/08/06 03:14:01;;;;;;;2.42;1.08;;;13.70;98.90;;;;;;5088993;28;20043;-68
2022/08/06 03:16:29;;;;;;;2.80;1.20;;;13.70;99.20;;;;;;5108025;28;20031;-68
2022/08/06 03:18:56;;;;;;;2.20;1.02;;;13.70;99.20;;;;;;5108919;28;20055;-67
2022/08/06 03:21:22;;;;;;;4.30;1.30;;;13.60;99.40;;;;;;5108815;28;20115;-68
2022/08/06 03:23:49;;;;;;;4.05;1.05;;;13.60;99.40;;;;;;5108731;28;20530;-68
2022/08/06 03:26:17;;;;;;;4.40;1.02;;;13.60;99.60;;;;;;5107512;28;20042;-68
2022/08/06 03:28:43;;;;;;;3.42;1.08;;;13.60;99.50;;;;;;5108730;28;20028;-68
2022/08/06 03:31:11;;;;;;;3.35;1.20;;;13.50;99.50;;;;;;5108751;28;20040;-68
2022/08/06 03:33:37;;;;;;;5.72;1.40;;;13.60;99.80;;;;;;5108785;28;20082;-68
2022/08/06 03:36:04;;;;;;;4.97;1.48;;;13.60;99.80;;;;;;5108543;28;20469;-68
2022/08/06 03:38:37;;;;;;;3.85;1.30;;;13.50;99.90;;;;;;5108884;28;20028;-67
2022/08/06 03:41:04;;;;;;;3.72;1.23;;;13.50;99.80;;;;;;5109027;28;20063;-68
2022/08/06 03:43:30;;;;;;;3.95;1.38;;;13.50;99.90;;;;;;5108536;28;20402;-68
2022/08/06 03:46:02;;;;;;;2.88;1.35;;;13.50;99.90;;;;;;5108829;28;20057;-68
2022/08/06 03:48:32;;;;;;;4.22;1.38;;;13.50;99.90;;;;;;5107322;28;20067;-68
2022/08/06 03:51:03;;;;;;;4.82;1.50;;;13.50;99.90;;;;;;5107074;28;20481;-68
2022/08/06 03:53:33;;;;;;;3.17;1.30;;;13.50;99.90;;;;;;5108625;28;20027;-67
2022/08/06 03:56:01;;;;;;;4.25;1.48;;;13.50;99.90;;;;;;5097463;28;20024;-67
2022/08/06 03:58:28;;;;;;;3.22;1.45;;;13.50;99.90;;;;;;5088594;28;20043;-67
2022/08/06 04:01:01;;;;;;;4.38;1.55;;;13.50;99.90;;;;;;5092417;28;20028;-67
2022/08/06 04:03:27;;;;;;;4.13;1.45;;;13.50;99.90;;;;;;5090911;28;20441;-67
2022/08/06 04:05:55;;;;;;;6.15;1.45;;;13.40;99.90;;;;;;5091847;28;20032;-67
2022/08/06 04:08:22;;;;;;;5.30;1.88;;;13.50;99.90;;;;;;5091994;28;20461;-68
2022/08/06 04:10:50;;;;;;;4.00;1.50;;;13.40;99.90;;;;;;5091802;28;20406;-67
2022/08/06 04:13:24;;;;;;;3.80;1.40;;;13.40;99.90;;;;;;5091961;28;20054;-67
2022/08/06 04:15:52;;;;;;;4.63;1.55;;;13.40;99.90;;;;;;5092041;28;20606;-67
2022/08/06 04:18:21;;;;;;;5.88;1.83;;;13.40;99.90;;;;;;5091886;28;20056;-67
2022/08/06 04:20:50;;;;;;;4.90;1.60;;;13.40;99.90;;;;;;5091873;28;20092;-67
2022/08/06 04:23:16;;;;;;;3.63;1.40;;;13.40;99.90;;;;;;5091742;28;20059;-67
2022/08/06 04:25:53;;;;;;;4.28;1.55;;;13.40;99.90;;;;;;5091954;28;20028;-67
2022/08/06 04:28:20;;;;;;;4.18;1.70;;;13.40;99.90;;;;;;5091988;28;20161;-67
2022/08/06 04:30:48;;;;;;;3.38;1.40;;;13.40;99.90;;;;;;5091668;28;20036;-67
2022/08/06 04:33:18;;;;;;;3.55;1.60;;;13.30;99.90;;;;;;5091524;28;20040;-67
2022/08/06 04:35:44;;;;;;;;;;;13.30;99.90;;;;;;5092041;28;20072;-68
2022/08/06 04:38:11;;;;;;;3.95;1.70;;;13.30;99.90;;;;;;5091268;28;19912;-67
2022/08/06 04:40:41;;;;;;;3.75;1.80;;;13.20;99.90;;;;;;5091509;28;20143;-67
2022/08/06 04:43:11;;;;;;;6.20;1.85;;;13.20;99.90;;;;;;5107051;28;20031;-67
2022/08/06 04:45:42;;;;;;;5.07;1.90;;;13.10;99.90;;;;;;5091468;28;20437;-67
2022/08/06 04:48:11;;;;;;;4.20;1.83;;;13.20;99.90;;;;;;5091500;28;20043;-67
2022/08/06 04:50:38;;;;;;;4.65;1.80;;;13.10;99.90;;;;;;5091770;28;20020;-67
2022/08/06 04:53:11;;;;;;;4.65;2.00;;;13.10;99.90;;;;;;5091352;28;20044;-67
2022/08/06 04:55:38;;;;;;;5.03;1.95;;;13.10;99.90;;;;;;5089971;28;20031;-67
2022/08/06 04:58:06;;;;;;;7.68;2.00;;;13.10;99.90;;;;;;5090919;28;20525;-67
2022/08/06 05:00:34;;;;;;;3.88;1.92;;;13.00;99.90;;;;;;5089818;28;20047;-67
2022/08/06 05:03:00;;;;;;;4.20;1.90;;;13.00;99.90;;;;;;5091287;28;20045;-68
2022/08/06 05:05:28;;;;;;;5.43;1.90;;;13.10;99.90;;;;;;5091083;28;20425;-67
2022/08/06 05:07:56;;;;;;;5.50;2.30;;;13.00;99.90;;;;;;5091060;28;20068;-67
2022/08/06 05:10:25;;;;;;;4.18;2.03;;;13.10;99.90;;;;;;5090676;28;20036;-68
2022/08/06 05:12:55;;;;;;;5.20;2.33;;;13.10;99.90;;;;;;5090965;28;20059;-67
2022/08/06 05:15:33;;;;;;;6.30;2.17;;;13.10;99.90;;;;;;5091256;28;20117;-68
2022/08/06 05:18:08;;;;;;;4.45;2.47;;;13.10;99.90;;;;;;5093204;28;20028;-68
2022/08/06 05:20:37;;;;;;;4.78;2.28;;;13.10;99.90;;;;;;5111290;28;20118;-66
2022/08/06 05:23:20;;;;;;;6.45;3.03;;;13.10;99.90;;;;;;5110857;28;20034;-69
2022/08/06 05:25:46;;;;;;;6.00;2.72;;;13.10;99.90;;;;;;5110914;28;20481;-66
2022/08/06 05:28:12;;;;;;;4.93;2.17;;;13.10;99.90;;;;;;5111164;28;20035;-67
2022/08/06 05:30:43;;;;;;;7.45;2.90;;;13.10;99.90;;;;;;5109613;28;20039;-67
2022/08/06 05:33:09;;;;;;;6.07;2.88;;;13.20;99.90;;;;;;5110776;28;20035;-67
2022/08/06 05:35:35;;;;;;;6.50;2.58;;;13.30;99.90;;;;;;5110681;28;20024;-67
2022/08/06 05:38:01;;;;;;;5.22;2.83;;;13.30;99.90;;;;;;5110538;28;20039;-67
2022/08/06 05:40:33;;;;;;;5.45;2.65;;;13.30;99.90;;;;;;5110711;28;20542;-67
2022/08/06 05:42:59;;;;;;;5.93;2.78;;;13.40;99.90;;;;;;5109500;28;20043;-68
2022/08/06 05:45:26;;;;;;;6.25;3.20;;;13.40;99.90;;;;;;5110729;27;20028;-66
2022/08/06 05:47:54;;;;;;;6.75;3.08;;;13.40;99.90;;;;;;5109018;28;20062;-66
2022/08/06 05:50:24;;;;;;;5.93;2.90;;;13.40;99.90;;;;;;5110574;28;20042;-67
2022/08/06 05:52:56;;;;;;;5.80;3.40;;;13.40;99.90;;;;;;5110734;28;20065;-67
2022/08/06 05:55:38;;;;;;;6.78;3.03;;;13.50;99.90;;;;;;5109316;28;20140;-66
2022/08/06 05:58:12;;;;;;;6.47;3.30;;;13.50;99.90;;;;;;5101079;28;20766;-66
2022/08/06 06:00:38;;;;;;;6.90;3.38;;;13.60;99.90;;;;;;5090307;28;20039;-66
2022/08/06 06:03:07;;;;;;;6.75;3.50;;;13.60;99.90;;;;;;5089506;28;20041;-66
2022/08/06 06:05:34;;;;;;;5.53;3.38;;;13.60;99.90;;;;;;5089579;28;20113;-67
2022/08/06 06:08:00;;;;;;;6.03;3.33;;;13.70;99.90;;;;;;5089819;28;20043;-66
2022/08/06 06:10:28;;;;;;;7.15;3.80;;;13.70;99.90;;;;;;5089612;28;20028;-66
2022/08/06 06:12:56;;;;;;;8.73;4.35;;;13.70;99.90;;;;;;5105183;28;20119;-66
2022/08/06 06:15:21;;;;;;;6.80;3.70;;;13.80;99.90;;;;;;5089372;28;20034;-66
2022/08/06 06:18:01;;;;;;;8.38;4.00;;;13.80;99.90;;;;;;5105164;28;20032;-67
2022/08/06 06:20:45;;;;;;;6.40;3.83;;;13.90;99.90;;;;;;5089763;28;20040;-68
2022/08/06 06:23:26;;;;;;;8.50;4.20;;;13.90;99.90;;;;;;5087486;28;20036;-67
2022/08/06 06:26:22;;;;;;;7.35;4.18;;;14.00;99.90;;;;;;5089473;28;20032;-66
2022/08/06 06:28:54;;;;;;;7.68;4.32;;;14.00;99.90;;;;;;5105057;28;20031;-67
2022/08/06 06:31:32;;;;;;;9.57;4.60;;;14.10;99.90;;;;;;5088758;28;20048;-67
2022/08/06 06:34:18;;;;;;;7.88;4.40;;;14.10;99.90;;;;;;5089275;28;20092;-66
2022/08/06 06:37:12;;;;;;;7.78;4.53;;;14.20;99.90;;;;;;5089387;28;20089;-67
2022/08/06 06:40:02;;;;;;;8.57;4.88;;;14.20;99.90;;;;;;5089315;28;20032;-67
2022/08/06 06:42:59;;;;;;;7.90;4.80;;;14.30;99.90;;;;;;5089188;28;20428;-66
2022/08/06 06:45:33;;;;;;;7.40;4.88;;;14.40;99.90;;;;;;5087560;28;20028;-67
2022/08/06 06:48:09;;;;;;;8.57;4.78;;;14.50;99.90;;;;;;5087769;28;20042;-67
2022/08/06 06:50:42;;;;;;;9.35;5.28;;;14.60;99.90;;;;;;5087720;28;20142;-67
2022/08/06 06:53:10;;;;;;;9.57;5.95;;;14.70;99.90;;;;;;5089034;28;20043;-67
2022/08/06 06:55:54;;;;;;;8.23;5.80;;;14.80;99.90;;;;;;5089268;28;20032;-66
2022/08/06 06:58:42;;;;;;;10.70;6.38;;;14.90;99.90;;;;;;5088971;28;20536;-68
2022/08/06 07:01:11;;;;;;;8.27;5.82;;;15.10;99.90;;;;;;5087406;28;20031;-68
2022/08/06 07:03:38;;;;;;;9.88;6.63;;;15.30;99.50;;;;;;5088913;28;20135;-67
2022/08/06 07:06:08;;;;;;;9.57;6.38;;;15.40;99.30;;;;;;5087598;28;20520;-67
2022/08/06 07:08:45;;;;;;;10.40;6.53;;;15.50;99.00;;;;;;5089204;28;20127;-67
2022/08/06 07:11:21;;;;;;;8.60;6.68;;;15.60;98.70;;;;;;5089145;28;20455;-67
2022/08/06 07:13:49;;;;;;;8.70;6.43;;;15.80;98.80;;;;;;5088716;28;20047;-67
2022/08/06 07:16:21;;;;;;;9.23;6.85;;;15.90;98.40;;;;;;5087202;28;20028;-67
2022/08/06 07:18:48;;;;;;;10.95;7.00;;;16.10;98.10;;;;;;5087200;28;20075;-68
2022/08/06 07:21:16;;;;;;;9.95;7.20;;;16.20;97.40;;;;;;5088789;28;20059;-67
2022/08/06 07:23:48;;;;;;;10.32;7.00;;;16.40;96.90;;;;;;5088833;28;20036;-68
2022/08/06 07:26:16;;;;;;;11.50;7.63;;;16.60;96.30;;;;;;5105712;28;20044;-68
2022/08/06 07:28:43;;;;;;;11.18;7.95;;;16.70;95.60;;;;;;5105177;28;20453;-68
2022/08/06 07:31:10;;;;;;;10.85;8.55;;;16.90;94.90;;;;;;5107645;28;20030;-68
2022/08/06 07:33:40;;;;;;;12.55;8.60;;;17.10;94.80;;;;;;5111186;28;20027;-67
2022/08/06 07:36:07;;;;;;;10.90;8.20;;;17.20;93.70;;;;;;5112940;28;20039;-67
2022/08/06 07:38:35;;;;;;;13.25;8.65;;;17.30;93.10;;;;;;5112879;28;20042;-66
2022/08/06 07:41:03;;;;;;;11.20;7.88;;;17.40;92.50;;;;;;5113043;28;20069;-67
2022/08/06 07:43:33;;;;;;;12.13;8.52;;;17.40;92.60;;;;;;5112785;28;20481;-67
2022/08/06 07:46:02;;;;;;;12.85;8.77;;;17.50;92.50;;;;;;5113090;28;20038;-67
2022/08/06 07:48:52;;;;;;;11.50;8.60;;;17.60;91.70;;;;;;5112918;28;20435;-67
2022/08/06 07:51:23;;;;;;;12.50;8.65;;;17.70;91.50;;;;;;5112692;28;20482;-67
2022/08/06 07:53:49;;;;;;;11.80;8.13;;;17.80;90.50;;;;;;5111604;28;20031;-67
2022/08/06 07:56:16;;;;;;;12.48;8.85;;;17.90;90.40;;;;;;5111047;28;20028;-67
2022/08/06 07:58:42;;;;;;;10.70;8.30;;;18.00;89.00;;;;;;5092763;28;20043;-66
2022/08/06 08:01:08;;;;;;;12.50;8.25;;;18.00;88.70;;;;;;5090901;28;20501;-67
2022/08/06 08:06:24;;;;;;;11.68;8.50;;;18.10;87.20;;;;;;5091120;28;20035;-68
2022/08/06 08:09:05;;;;;;;12.68;8.70;;;18.20;86.10;;;;;;5092388;28;20028;-67
2022/08/06 08:11:33;;;;;;;10.27;8.10;;;18.20;86.00;;;;;;5090551;28;20127;-66
2022/08/06 08:14:02;;;;;;;12.63;8.15;;;18.30;84.70;;;;;;5090612;28;20503;-66
2022/08/06 08:16:28;;;;;;;10.68;8.32;;;18.40;85.30;;;;;;5091875;28;20064;-67
2022/08/06 08:18:54;;;;;;;13.35;8.50;;;18.50;84.30;;;;;;5092082;28;20087;-67
2022/08/06 08:21:21;;;;;;;11.57;8.40;;;18.60;82.80;;;;;;5091953;28;20430;-66
2022/08/06 08:23:47;;;;;;;10.43;7.57;;;18.70;82.40;;;;;;5091869;28;20035;-66
2022/08/06 08:26:13;;;;;;;10.15;7.50;;;18.70;82.20;;;;;;5091505;28;20036;-68
2022/08/06 08:28:39;;;;;;;11.07;7.72;;;18.80;80.80;;;;;;5091851;28;20071;-67
2022/08/06 08:31:06;;;;;;;11.48;7.85;;;18.90;79.40;;;;;;5091489;28;20062;-67
2022/08/06 08:33:33;;;;;;;8.70;7.15;;;19.00;79.80;;;;;;5107303;28;20139;-67
2022/08/06 08:35:59;;;;;;;10.55;7.50;;;19.00;78.40;;;;;;5090189;28;20470;-67
2022/08/06 08:38:25;;;;;;;9.30;6.72;;;19.10;78.60;;;;;;5090054;28;20071;-66
2022/08/06 08:40:53;;;;;;;10.82;7.38;;;19.10;75.70;;;;;;5091322;28;20051;-67
2022/08/06 08:43:25;;;;;;;10.27;6.60;;;19.20;74.70;;;;;;5091360;28;20028;-67
2022/08/06 08:45:53;;;;;;;10.50;6.45;;;19.40;75.60;;;;;;5089653;28;20024;-67
2022/08/06 08:48:24;;;;;;;10.50;6.20;;;19.50;72.50;;;;;;5091453;28;20085;-67
2022/08/06 08:50:50;;;;;;;11.63;6.38;;;19.60;72.10;;;;;;5091418;28;20456;-67
2022/08/06 08:53:39;;;;;;;11.63;6.05;;;19.60;71.70;;;;;;5091082;28;20444;-67
2022/08/06 08:56:06;;;;;;;8.45;5.53;;;19.70;70.00;;;;;;5091076;28;20093;-68
2022/08/06 08:58:36;;;;;;;8.75;5.50;;;19.80;69.30;;;;;;5091229;28;20040;-67
2022/08/06 09:01:07;;;;;;;7.97;5.70;;;19.90;67.30;;;;;;5089811;28;20031;-67
2022/08/06 09:03:34;;;;;;;8.23;5.72;;;20.00;67.20;;;;;;5089744;28;20035;-66
2022/08/06 09:06:02;;;;;;;9.73;5.35;;;20.00;65.60;;;;;;5090987;28;20024;-67
2022/08/06 09:08:27;;;;;;;9.13;4.85;;;20.10;63.90;;;;;;5089412;28;20065;-67
2022/08/06 09:10:53;;;;;;;8.52;5.68;;;20.20;65.30;;;;;;5091263;28;20109;-67
2022/08/06 09:13:19;;;;;;;8.27;5.78;;;20.40;63.50;;;;;;5090976;28;20064;-66
2022/08/06 09:15:44;;;;;;;9.65;5.70;;;20.50;63.40;;;;;;5090957;28;20064;-67
2022/08/06 09:18:10;;;;;;;10.13;5.32;;;20.50;62.90;;;;;;5090486;28;20167;-68
2022/08/06 09:20:37;;;;;;;8.75;5.53;;;20.60;61.00;;;;;;5090876;28;20488;-68
2022/08/06 09:23:03;;;;;;;9.02;5.13;;;20.70;61.10;;;;;;5090588;28;20032;-67
2022/08/06 09:25:39;;;;;;;8.35;5.80;;;20.70;60.90;;;;;;5090679;28;20036;-68
2022/08/06 09:28:30;;;;;;;7.78;5.35;;;20.70;60.90;;;;;;5089377;28;20035;-68
2022/08/06 09:31:17;;;;;;;10.23;4.95;;;20.70;59.50;;;;;;5090651;28;20537;-67
2022/08/06 09:33:55;;;;;;;8.63;5.28;;;20.80;58.10;;;;;;5090769;28;20028;-68
2022/08/06 09:36:21;;;;;;;6.70;5.10;;;20.80;59.10;;;;;;5094372;28;20031;-68
2022/08/06 09:38:49;;;;;;;10.15;5.53;;;20.90;57.70;;;;;;5110849;28;20096;-69
2022/08/06 09:41:17;;;;;;;8.63;5.75;;;21.00;58.00;;;;;;5109241;28;20036;-68
2022/08/06 09:43:48;;;;;;;8.20;5.60;;;21.10;56.30;;;;;;5110740;28;20027;-68
2022/08/06 09:46:14;;;;;;;9.10;5.72;;;21.30;57.00;;;;;;5110921;28;20032;-68
2022/08/06 09:48:57;;;;;;;7.65;5.00;;;21.40;56.80;;;;;;5109540;28;20028;-65
2022/08/06 09:51:24;;;;;;;7.13;5.57;;;21.50;55.80;;;;;;5110869;28;20035;-65
2022/08/06 09:53:59;;;;;;;9.73;5.30;;;21.50;55.50;;;;;;5110348;28;20032;-67
2022/08/06 09:56:26;;;;;;;9.00;5.25;;;21.50;54.00;;;;;;5109246;28;20572;-66
2022/08/06 09:59:00;;;;;;;8.10;5.10;;;21.50;54.40;;;;;;5110347;28;20027;-67
2022/08/06 10:01:27;;;;;;;7.32;5.47;;;21.60;54.00;;;;;;5110382;28;20027;-67
2022/08/06 10:03:55;;;;;;;7.97;5.40;;;21.70;53.50;;;;;;5107703;28;20102;-66
2022/08/06 10:06:21;;;;;;;7.63;4.78;;;21.70;53.80;;;;;;5089914;28;20044;-67
2022/08/06 10:08:49;;;;;;;6.97;4.70;;;21.80;52.60;;;;;;5088122;28;20036;-66
2022/08/06 10:11:15;;;;;;;8.05;4.93;;;21.80;53.40;;;;;;5090112;28;20039;-67
2022/08/06 10:13:47;;;;;;;7.80;4.50;;;21.80;52.80;;;;;;5089722;28;20627;-67
2022/08/06 10:16:16;;;;;;;7.05;4.20;;;21.80;50.80;;;;;;5089737;28;20031;-67
2022/08/06 10:18:46;;;;;;;7.72;4.20;;;22.00;51.80;;;;;;5087983;28;20126;-67
2022/08/06 10:21:14;;;;;;;5.97;4.07;;;22.20;51.10;;;;;;5088161;28;20119;-67
2022/08/06 10:23:41;;;;;;;6.47;4.25;;;22.30;49.60;;;;;;5088148;28;20039;-67
2022/08/06 10:26:12;;;;;;;5.10;3.50;;;22.40;49.30;;;;;;5089539;28;20512;-68
2022/08/06 10:28:39;;;;;;;7.68;3.80;;;22.40;47.60;;;;;;5089429;28;20028;-67
2022/08/06 10:31:11;;;;;;;5.47;3.78;;;22.40;47.20;;;;;;5089461;28;20035;-67
2022/08/06 10:34:00;;;;;;;7.50;3.80;;;22.40;47.30;;;;;;5089455;28;20034;-67
2022/08/06 10:36:31;;;;;;;7.05;3.83;;;22.60;47.10;;;;;;5089505;28;20024;-67
2022/08/06 10:38:57;;;;;;;6.53;3.58;;;22.60;45.90;;;;;;5088121;28;20032;-66
2022/08/06 10:41:24;;;;;;;6.45;4.00;;;22.70;47.40;;;;;;5089548;28;20036;-67
2022/08/06 10:43:53;;;;;;;8.65;4.45;;;22.90;47.50;;;;;;5087881;28;20118;-68
2022/08/06 10:46:19;;;;;;;6.00;3.80;;;23.00;47.70;;;;;;5089215;28;20109;-67
2022/08/06 10:48:49;;;;;;;6.18;4.43;;;22.90;46.70;;;;;;5089161;28;20031;-68
2022/08/06 10:51:15;;;;;;;6.50;3.90;;;22.90;45.50;;;;;;5088908;28;20032;-67
2022/08/06 10:53:45;;;;;;;6.82;4.38;;;22.70;45.80;;;;;;5087713;28;20043;-67
2022/08/06 10:56:13;;;;;;;6.82;4.20;;;22.70;45.60;;;;;;5087607;28;20482;-67
2022/08/06 10:58:40;;;;;;;5.65;3.90;;;22.80;46.50;;;;;;5089030;28;20050;-67
2022/08/06 11:01:19;;;;;;;6.63;3.92;;;23.00;46.90;;;;;;5089228;28;20032;-67
2022/08/06 11:03:58;;;;;;;6.88;4.47;;;23.30;46.30;;;;;;5089085;28;20090;-68
2022/08/06 11:06:46;;;;;;;8.60;4.15;;;23.50;45.90;;;;;;5087548;28;20054;-68
2022/08/06 11:09:57;;;;;;;7.18;4.43;;;23.70;44.20;;;;;;5088654;28;20099;-68
2022/08/06 11:12:44;;;;;;;7.88;4.80;;;23.80;45.10;;;;;;5089234;28;20078;-68
2022/08/06 11:15:10;;;;;;;7.45;4.50;;;24.00;44.70;;;;;;5088891;28;20036;-68
2022/08/06 11:18:03;;;;;;;5.93;3.90;;;24.30;43.60;;;;;;5088384;28;20082;-67
2022/08/06 11:20:33;;;;;;;7.60;4.80;;;25.30;42.70;;;;;;5086379;28;20056;-68
2022/08/06 11:23:23;;;;;;;6.53;3.90;;;25.20;42.90;;;;;;5088725;28;20112;-68
2022/08/06 11:25:52;;;;;;;7.18;4.80;;;24.90;40.80;;;;;;5080759;28;20349;-69
2022/08/06 11:28:28;;;;;;;7.40;4.68;;;24.60;41.30;;;;;;5087554;28;20032;-69
2022/08/06 11:30:56;;;;;;;6.53;4.07;;;24.40;42.70;;;;;;5087537;28;20602;-69
2022/08/06 11:33:34;;;;;;;7.00;4.63;;;24.40;42.10;;;;;;5088642;28;20565;-69
2022/08/06 11:36:01;;;;;;;6.43;4.40;;;24.60;41.90;;;;;;5088426;28;20509;-69
2022/08/06 11:38:42;;;;;;;6.45;4.30;;;24.90;42.20;;;;;;5087094;28;20036;-68
2022/08/06 11:41:09;;;;;;;6.72;4.57;;;25.40;40.80;;;;;;5088693;28;20028;-68
2022/08/06 11:43:50;;;;;;;7.18;4.50;;;25.90;41.10;;;;;;5092581;28;20081;-69
2022/08/06 11:46:21;;;;;;;6.20;4.32;;;26.00;39.00;;;;;;5108816;28;20027;-68
2022/08/06 11:48:59;;;;;;;6.15;3.67;;;25.80;39.40;;;;;;5108595;28;20038;-68
2022/08/06 11:51:44;;;;;;;7.50;4.28;;;25.60;39.90;;;;;;5109010;28;20075;-68
2022/08/06 11:54:11;;;;;;;8.25;4.18;;;25.10;39.50;;;;;;5108975;28;20035;-69
2022/08/06 11:57:04;;;;;;;5.60;4.00;;;24.60;41.00;;;;;;5107389;28;20028;-68
2022/08/06 11:59:31;;;;;;;7.40;3.90;;;24.40;42.30;;;;;;5109197;28;20035;-68
2022/08/06 12:01:58;;;;;;;6.95;4.28;;;24.60;42.20;;;;;;5108682;28;20031;-68
2022/08/06 12:04:35;;;;;;;5.70;3.63;;;25.00;41.30;;;;;;5108504;28;20111;-68
2022/08/06 12:07:16;;;;;;;7.70;4.00;;;25.10;39.70;;;;;;5105083;28;20027;-70
2022/08/06 12:09:45;;;;;;;5.55;3.95;;;25.20;39.80;;;;;;5108904;28;20468;-68
2022/08/06 12:12:27;;;;;;;;;;;25.30;39.10;;;;;;5109309;28;20148;-69
2022/08/06 12:14:53;;;;;;;4.95;3.20;;;25.60;38.80;;;;;;5108777;28;20457;-67
2022/08/06 12:17:20;;;;;;;6.15;3.72;;;26.50;38.40;;;;;;5108637;28;20030;-68
2022/08/06 12:19:51;;;;;;;6.13;3.45;;;27.20;36.80;;;;;;5108912;28;20074;-68
2022/08/06 12:22:21;;;;;;;6.57;3.70;;;27.70;36.30;;;;;;5112385;28;20058;-68
2022/08/06 12:24:53;;;;;;;6.78;4.40;;;27.60;36.40;;;;;;5112459;28;20028;-69
2022/08/06 12:27:21;;;;;;;7.50;3.90;;;27.20;35.90;;;;;;5112528;28;20417;-68
2022/08/06 12:29:48;;;;;;;5.90;3.75;;;26.80;35.30;;;;;;5112457;28;20031;-69
2022/08/06 12:32:28;;;;;;;6.78;4.13;;;26.40;36.40;;;;;;5110740;28;20076;-68
2022/08/06 12:34:56;;;;;;;6.30;3.92;;;26.40;36.40;;;;;;5112099;28;20028;-68
2022/08/06 12:37:36;;;;;;;5.68;3.85;;;26.50;35.80;;;;;;5112286;28;20091;-69
2022/08/06 12:42:51;;;;;;;6.28;4.28;;;28.60;34.00;;;;;;5111869;28;20030;-67
2022/08/06 12:45:24;;;;;;;7.53;3.88;;;28.90;31.60;;;;;;5112027;28;20043;-67
2022/08/06 12:48:01;;;;;;;6.90;4.03;;;28.20;32.20;;;;;;5111486;27;20479;-67
2022/08/06 12:50:28;;;;;;;6.40;4.07;;;27.60;32.70;;;;;;5111949;28;20031;-67
2022/08/06 12:53:12;;;;;;;6.65;4.43;;;27.00;32.90;;;;;;5111655;28;20024;-67
2022/08/06 12:55:48;;;;;;;6.72;4.10;;;26.60;34.60;;;;;;5111585;28;20112;-66
2022/08/06 12:58:17;;;;;;;7.03;4.05;;;26.30;34.10;;;;;;5111543;28;20090;-66
2022/08/06 13:00:46;;;;;;;9.05;5.45;;;26.10;35.00;;;;;;5111569;28;20581;-68
2022/08/06 13:03:13;;;;;;;7.75;4.90;;;25.80;40.60;;;;;;5111467;28;20483;-69
2022/08/06 13:05:41;;;;;;;7.47;4.80;;;25.70;41.50;;;;;;5111470;28;20024;-68
2022/08/06 13:08:07;;;;;;;7.47;4.97;;;25.80;41.80;;;;;;5111414;28;20117;-68
2022/08/06 13:10:33;;;;;;;8.63;4.90;;;25.80;42.90;;;;;;5110104;28;20383;-69